Time;durP1;ratioP1;P1;durP2;ratioP2;P2;SDS_P1;SDS_P2;PMS_P1;PMS_P2;Temp;Humidity;BMP_temperature;BMP_pressure;BME280_temperature;BME280_humidity;BME280_pressure;Samples;Min_cycle;Max_cycle;Signal;HPM_P1;HPM_P2
2021/12/17 00:00:58;;;;;;;18.70;4.83;;;5.80;99.90;;;;;;5094344;28;20569;-82
2021/12/17 00:03:37;;;;;;;26.23;5.87;;;5.80;99.90;;;;;;5094408;28;20197;-81
2021/12/17 00:06:15;;;;;;;25.23;5.93;;;5.80;99.90;;;;;;5094717;28;20407;-79
2021/12/17 00:08:46;;;;;;;22.10;5.47;;;5.80;99.90;;;;;;5094472;28;20222;-81
2021/12/17 00:11:13;;;;;;;23.73;5.50;;;5.80;99.90;;;;;;5094448;28;20245;-82
2021/12/17 00:13:42;;;;;;;25.40;7.00;;;5.80;99.90;;;;;;5094903;28;20192;-83
2021/12/17 00:16:15;;;;;;;25.40;5.53;;;5.80;99.90;;;;;;5094406;28;20216;-79
2021/12/17 00:18:58;;;;;;;25.60;5.83;;;5.80;99.90;;;;;;5094878;28;20184;-81
2021/12/17 00:48:54;;;;;;;22.87;8.10;;;5.90;99.90;;;;;;5093001;28;20183;-80
2021/12/17 00:54:20;;;;;;;26.17;8.50;;;5.90;99.90;;;;;;5093281;28;20176;-80
2021/12/17 00:56:47;;;;;;;31.27;10.90;;;5.90;99.90;;;;;;5094022;28;20638;-80
2021/12/17 00:59:15;;;;;;;29.83;9.40;;;5.90;99.90;;;;;;5094122;28;20316;-79
2021/12/17 01:01:42;;;;;;;32.00;9.43;;;5.90;99.90;;;;;;5072953;28;20720;-79
2021/12/17 01:04:10;;;;;;;27.00;9.57;;;5.90;99.90;;;;;;5073143;28;20196;-79
2021/12/17 01:06:38;;;;;;;28.43;9.40;;;5.90;99.90;;;;;;5073320;28;20257;-80
2021/12/17 01:09:07;;;;;;;28.57;8.17;;;5.90;99.90;;;;;;5072830;28;20258;-79
2021/12/17 01:11:34;;;;;;;26.30;9.13;;;5.90;99.90;;;;;;5091523;28;20527;-80
2021/12/17 01:14:02;;;;;;;21.70;7.47;;;5.90;99.90;;;;;;5093263;28;20192;-81
2021/12/17 01:16:29;;;;;;;26.60;8.20;;;5.90;99.90;;;;;;5093304;28;20302;-80
2021/12/17 01:19:06;;;;;;;29.03;8.40;;;5.90;99.90;;;;;;5093192;28;20188;-82
2021/12/17 01:21:42;;;;;;;30.03;10.10;;;5.90;99.90;;;;;;5093275;28;20175;-82
2021/12/17 01:24:27;;;;;;;26.80;8.13;;;5.90;99.90;;;;;;5092937;28;20705;-79
2021/12/17 01:35:28;;;;;;;32.63;8.17;;;5.90;99.90;;;;;;5092726;28;20206;-80
2021/12/17 01:41:07;;;;;;;19.33;7.47;;;5.90;99.90;;;;;;5072233;28;20530;-80
2021/12/17 01:43:40;;;;;;;25.07;7.90;;;5.90;99.90;;;;;;5073263;28;20291;-80
2021/12/17 01:46:09;;;;;;;34.50;7.97;;;5.90;99.90;;;;;;5072272;28;20180;-80
2021/12/17 01:48:52;;;;;;;27.97;8.00;;;5.90;99.90;;;;;;5078226;28;20640;-80
2021/12/17 01:56:56;;;;;;;24.63;7.30;;;5.90;99.90;;;;;;5092619;28;20206;-80
2021/12/17 01:59:28;;;;;;;26.33;7.80;;;5.90;99.90;;;;;;5092236;28;20176;-80
2021/12/17 02:02:03;;;;;;;27.03;8.37;;;5.90;99.90;;;;;;5091935;28;20633;-80
2021/12/17 02:04:31;;;;;;;24.63;8.87;;;5.90;99.90;;;;;;5092723;28;20180;-81
2021/12/17 02:06:59;;;;;;;27.77;7.30;;;5.90;99.90;;;;;;5091764;28;20192;-84
2021/12/17 02:21:11;;;;;;;21.77;7.00;;;5.80;99.90;;;;;;5092180;28;20263;-82
2021/12/17 02:29:32;;;;;;;22.30;7.80;;;5.80;99.90;;;;;;5074180;28;20328;-83
2021/12/17 02:32:02;;;;;;;23.57;6.53;;;5.80;99.90;;;;;;5092328;28;20180;-81
2021/12/17 02:34:49;;;;;;;28.80;7.13;;;5.70;99.90;;;;;;5092142;28;20227;-79
2021/12/17 02:37:21;;;;;;;25.17;7.83;;;5.80;99.90;;;;;;5091815;28;20200;-80
2021/12/17 02:40:11;;;;;;;32.37;8.03;;;5.70;99.90;;;;;;5091951;28;20179;-80
2021/12/17 02:45:31;;;;;;;27.07;9.30;;;5.70;99.90;;;;;;5091866;28;20186;-79
2021/12/17 02:45:36;;;;;;;30.43;8.13;;;5.70;99.90;;;;;;5091585;28;20274;-79
2021/12/17 02:48:06;;;;;;;24.37;8.10;;;5.70;99.90;;;;;;5092004;28;20200;-79
2021/12/17 02:50:34;;;;;;;27.50;9.50;;;5.70;99.90;;;;;;5091954;28;20195;-82
2021/12/17 02:53:07;;;;;;;30.07;9.27;;;5.60;99.90;;;;;;5091878;28;20199;-80
2021/12/17 02:55:35;;;;;;;38.33;9.40;;;5.70;99.90;;;;;;5091950;28;20203;-80
2021/12/17 02:58:03;;;;;;;26.67;8.70;;;5.60;99.90;;;;;;5091643;28;20640;-83
2021/12/17 03:00:30;;;;;;;30.73;9.83;;;5.60;99.90;;;;;;5092173;28;20188;-80
2021/12/17 03:02:57;;;;;;;34.90;9.03;;;5.60;99.90;;;;;;5091807;28;20195;-81
2021/12/17 03:05:26;;;;;;;32.20;10.27;;;5.60;99.90;;;;;;5091588;28;20652;-83
2021/12/17 03:07:54;;;;;;;35.13;8.80;;;5.50;99.90;;;;;;5092201;28;20195;-80
2021/12/17 03:10:23;;;;;;;29.70;9.40;;;5.50;99.90;;;;;;5092337;28;20230;-81
2021/12/17 03:13:06;;;;;;;34.80;9.63;;;5.50;99.90;;;;;;5092643;28;20205;-79
2021/12/17 03:15:41;;;;;;;33.60;9.87;;;5.50;99.90;;;;;;5079740;28;20200;-79
2021/12/17 03:23:41;;;;;;;24.27;9.13;;;5.60;99.90;;;;;;5090407;28;20546;-79
2021/12/17 03:26:11;;;;;;;36.13;9.60;;;5.50;99.90;;;;;;5095102;28;20180;-79
2021/12/17 03:28:40;;;;;;;32.30;10.30;;;5.50;99.90;;;;;;5095588;28;20187;-80
2021/12/17 03:31:08;;;;;;;30.20;8.63;;;5.50;99.90;;;;;;5095118;28;20188;-84
2021/12/17 03:33:36;;;;;;;32.77;9.13;;;5.50;99.90;;;;;;5095382;28;20702;-83
2021/12/17 03:36:03;;;;;;;26.43;9.57;;;5.50;99.90;;;;;;5095125;28;20621;-83
2021/12/17 03:38:30;;;;;;;41.30;10.50;;;5.50;99.90;;;;;;5094971;28;20241;-80
2021/12/17 03:41:13;;;;;;;28.90;8.90;;;5.40;99.90;;;;;;5095033;28;20647;-83
2021/12/17 03:43:41;;;;;;;29.33;9.23;;;5.50;99.90;;;;;;5094888;28;20654;-80
2021/12/17 03:46:09;;;;;;;33.93;9.30;;;5.40;99.90;;;;;;5095025;28;20196;-79
2021/12/17 03:48:38;;;;;;;30.87;9.13;;;5.40;99.90;;;;;;5095158;28;20195;-79
2021/12/17 03:51:10;;;;;;;28.57;9.43;;;5.50;99.90;;;;;;5094529;28;20183;-81
2021/12/17 03:53:38;;;;;;;40.87;10.20;;;5.40;99.90;;;;;;5094683;28;20274;-82
2021/12/17 03:56:05;;;;;;;34.93;9.87;;;5.40;99.90;;;;;;5094535;28;20265;-83
2021/12/17 03:58:32;;;;;;;40.03;10.17;;;5.40;99.90;;;;;;5094953;28;20195;-80
2021/12/17 04:01:01;;;;;;;37.07;11.17;;;5.40;99.90;;;;;;5094623;28;20184;-83
2021/12/17 04:03:28;;;;;;;34.27;9.93;;;5.40;99.90;;;;;;5094424;28;20583;-81
2021/12/17 04:05:55;;;;;;;35.93;10.07;;;5.40;99.90;;;;;;5094830;28;20199;-80
2021/12/17 04:08:22;;;;;;;32.63;10.23;;;5.30;99.90;;;;;;5094279;28;20192;-81
2021/12/17 04:10:53;;;;;;;42.73;9.97;;;5.40;99.90;;;;;;5094576;28;20215;-80
2021/12/17 04:13:30;;;;;;;31.47;9.40;;;5.40;99.90;;;;;;5094173;28;20197;-80
2021/12/17 04:16:00;;;;;;;32.93;10.27;;;5.40;99.90;;;;;;5094313;28;20219;-79
2021/12/17 04:18:29;;;;;;;41.83;9.77;;;5.40;99.90;;;;;;5094868;28;20194;-80
2021/12/17 04:20:56;;;;;;;38.63;10.83;;;5.40;99.90;;;;;;5093959;28;20596;-79
2021/12/17 04:23:23;;;;;;;36.60;9.80;;;5.40;99.90;;;;;;5093959;28;20320;-79
2021/12/17 04:25:50;;;;;;;40.93;10.87;;;5.40;99.90;;;;;;5094176;28;20191;-79
2021/12/17 04:28:19;;;;;;;37.80;10.93;;;5.50;99.90;;;;;;5093841;28;20191;-80
2021/12/17 04:30:46;;;;;;;35.60;10.40;;;5.50;99.90;;;;;;5093863;28;20581;-80
2021/12/17 04:33:14;;;;;;;37.47;10.30;;;5.50;99.90;;;;;;5093727;28;20199;-79
2021/12/17 04:35:43;;;;;;;33.43;10.70;;;5.50;99.90;;;;;;5093887;28;20199;-79
2021/12/17 04:38:12;;;;;;;36.23;10.73;;;5.60;99.90;;;;;;5093958;28;20218;-79
2021/12/17 04:40:42;;;;;;;43.83;11.77;;;5.50;99.90;;;;;;5093478;28;20194;-81
2021/12/17 04:43:16;;;;;;;37.40;11.33;;;5.50;99.90;;;;;;5093823;28;20196;-82
2021/12/17 04:45:50;;;;;;;37.33;10.93;;;5.60;99.90;;;;;;5094072;28;20263;-80
2021/12/17 04:59:28;;;;;;;38.90;12.23;;;5.60;99.90;;;;;;5088019;28;20217;-79
2021/12/17 05:01:55;;;;;;;41.17;11.33;;;5.60;99.90;;;;;;5093602;28;20202;-79
2021/12/17 05:04:22;;;;;;;35.37;11.97;;;5.60;99.90;;;;;;5093534;28;20191;-79
2021/12/17 05:06:50;;;;;;;39.67;13.00;;;5.50;99.90;;;;;;5093640;28;20592;-79
2021/12/17 05:09:28;;;;;;;37.20;12.77;;;5.60;99.90;;;;;;5092763;28;20604;-79
2021/12/17 05:20:24;;;;;;;46.03;13.20;;;5.50;99.90;;;;;;5093117;28;20586;-79
2021/12/17 05:22:57;;;;;;;45.47;12.13;;;5.50;99.90;;;;;;5093205;28;20184;-79
2021/12/17 05:25:42;;;;;;;55.77;16.13;;;5.50;99.90;;;;;;5092961;28;20644;-79
2021/12/17 05:28:09;;;;;;;50.57;13.83;;;5.50;99.90;;;;;;5092816;28;20232;-79
2021/12/17 05:30:40;;;;;;;49.83;15.60;;;5.50;99.90;;;;;;5092696;28;20603;-79
2021/12/17 05:33:07;;;;;;;51.63;14.47;;;5.50;99.90;;;;;;5093213;28;20583;-79
2021/12/17 05:35:34;;;;;;;51.77;13.83;;;5.50;99.90;;;;;;5092880;28;20195;-79
2021/12/17 05:38:02;;;;;;;41.53;12.23;;;5.50;99.90;;;;;;5092340;28;20211;-79
2021/12/17 05:40:29;;;;;;;31.53;10.13;;;5.50;99.90;;;;;;5092911;28;20204;-79
2021/12/17 05:43:00;;;;;;;35.07;10.03;;;5.50;99.90;;;;;;5092344;28;20253;-79
2021/12/17 05:45:35;;;;;;;27.17;9.77;;;5.50;99.90;;;;;;5092930;28;20206;-79
2021/12/17 05:48:04;;;;;;;31.23;10.37;;;5.50;99.90;;;;;;5092397;28;20193;-79
2021/12/17 05:50:31;;;;;;;32.40;10.23;;;5.50;99.90;;;;;;5093046;28;20187;-79
2021/12/17 05:52:59;;;;;;;27.60;9.73;;;5.50;99.90;;;;;;5092327;28;20647;-82
2021/12/17 05:55:28;;;;;;;24.23;8.80;;;5.50;99.90;;;;;;5092393;28;20225;-81
2021/12/17 05:57:55;;;;;;;33.43;9.10;;;5.50;99.90;;;;;;5092330;28;20268;-81
2021/12/17 06:00:23;;;;;;;29.07;9.23;;;5.50;99.90;;;;;;5092285;28;20249;-82
2021/12/17 06:02:52;;;;;;;30.43;9.47;;;5.50;99.90;;;;;;5092244;28;20213;-81
2021/12/17 06:05:19;;;;;;;30.53;8.87;;;5.50;99.90;;;;;;5092504;28;20250;-78
2021/12/17 06:07:46;;;;;;;24.83;9.27;;;5.50;99.90;;;;;;5092059;28;20252;-80
2021/12/17 06:10:13;;;;;;;24.70;9.17;;;5.50;99.90;;;;;;5092389;28;20241;-81
2021/12/17 06:12:42;;;;;;;31.83;10.03;;;5.50;99.90;;;;;;5092102;28;20192;-82
2021/12/17 06:15:12;;;;;;;31.20;10.00;;;5.50;99.90;;;;;;5092156;28;20700;-81
2021/12/17 06:17:39;;;;;;;34.23;10.90;;;5.50;99.90;;;;;;5092552;28;20310;-80
2021/12/17 06:20:10;;;;;;;30.20;9.47;;;5.50;99.90;;;;;;5092524;28;20191;-79
2021/12/17 06:22:37;;;;;;;26.67;9.77;;;5.50;99.90;;;;;;5092505;28;20199;-82
2021/12/17 06:25:04;;;;;;;26.17;8.90;;;5.50;99.90;;;;;;5092427;28;20286;-81
2021/12/17 06:27:33;;;;;;;30.80;9.40;;;5.50;99.90;;;;;;5091935;28;20195;-80
2021/12/17 06:30:03;;;;;;;28.00;10.23;;;5.50;99.90;;;;;;5092373;28;20290;-79
2021/12/17 06:32:30;;;;;;;28.90;10.07;;;5.50;99.90;;;;;;5091828;28;20197;-82
2021/12/17 06:34:57;;;;;;;31.97;10.00;;;5.50;99.90;;;;;;5092289;28;20223;-81
2021/12/17 06:37:25;;;;;;;33.93;10.10;;;5.50;99.90;;;;;;5091592;28;20627;-80
2021/12/17 06:39:52;;;;;;;27.37;10.30;;;5.50;99.90;;;;;;5091943;28;20717;-82
2021/12/17 06:42:22;;;;;;;32.33;10.40;;;5.50;99.90;;;;;;5091582;28;20571;-81
2021/12/17 06:44:49;;;;;;;33.27;10.87;;;5.60;99.90;;;;;;5092145;28;20282;-79
2021/12/17 06:47:28;;;;;;;34.00;10.70;;;5.60;99.90;;;;;;5093180;28;20612;-80
2021/12/17 06:50:01;;;;;;;32.90;10.63;;;5.60;99.90;;;;;;5095885;28;20232;-79
2021/12/17 06:55:33;;;;;;;32.53;10.93;;;5.60;99.90;;;;;;5097120;28;20256;-79
2021/12/17 06:58:38;;;;;;;40.60;11.63;;;5.60;99.90;;;;;;5098002;28;20203;-80
2021/12/17 07:01:12;;;;;;;40.73;11.53;;;5.60;99.90;;;;;;5098313;28;20202;-81
2021/12/17 07:06:50;;;;;;;38.73;12.30;;;5.60;99.90;;;;;;5089940;28;20277;-80
2021/12/17 07:17:55;;;;;;;36.83;12.10;;;5.60;99.90;;;;;;5099127;28;20756;-80
2021/12/17 07:21:10;;;;;;;47.67;13.10;;;5.70;99.90;;;;;;5106088;28;20228;-83
2021/12/17 07:24:05;;;;;;;51.63;12.53;;;5.70;99.90;;;;;;5107107;28;20200;-81
2021/12/17 07:35:12;;;;;;;31.47;11.57;;;5.80;99.90;;;;;;5095166;28;20581;-80
2021/12/17 07:40:27;;;;;;;29.27;9.93;;;5.80;99.90;;;;;;5096074;28;20183;-83
2021/12/17 07:42:55;;;;;;;29.47;10.03;;;5.90;99.90;;;;;;5095045;28;20234;-81
2021/12/17 07:45:22;;;;;;;192.70;17.50;;;5.90;99.90;;;;;;5095770;28;20303;-82
2021/12/17 07:47:51;;;;;;;24.77;9.10;;;5.90;99.90;;;;;;5095102;28;20202;-85
2021/12/17 07:50:26;;;;;;;29.60;9.93;;;6.00;99.90;;;;;;5094392;28;20679;-82
2021/12/17 07:52:56;;;;;;;34.70;11.17;;;6.00;99.90;;;;;;5074709;28;20582;-84
2021/12/17 07:55:27;;;;;;;34.37;11.53;;;6.00;99.90;;;;;;5074574;28;20196;-81
2021/12/17 07:57:55;;;;;;;35.47;12.27;;;6.00;99.90;;;;;;5074510;28;20224;-83
2021/12/17 08:00:35;;;;;;;25.83;10.80;;;6.00;99.90;;;;;;5079622;28;20183;-84
2021/12/17 08:03:03;;;;;;;38.17;10.97;;;6.00;99.90;;;;;;5099782;28;20180;-81
2021/12/17 08:05:30;;;;;;;40.13;12.03;;;6.00;99.90;;;;;;5094794;28;20191;-78
2021/12/17 08:08:01;;;;;;;38.73;11.93;;;6.00;99.90;;;;;;5094878;28;20193;-79
2021/12/17 08:10:28;;;;;;;103.30;42.13;;;6.00;99.90;;;;;;5099689;28;20212;-78
2021/12/17 08:12:55;;;;;;;38.27;11.53;;;6.00;99.90;;;;;;5096618;28;20237;-79
2021/12/17 08:15:31;;;;;;;33.77;10.63;;;6.00;99.90;;;;;;5100865;28;20195;-80
2021/12/17 08:18:21;;;;;;;40.10;12.13;;;6.00;99.90;;;;;;5097709;28;20211;-78
2021/12/17 08:26:39;;;;;;;38.80;11.87;;;6.00;99.90;;;;;;5101795;28;20685;-78
2021/12/17 08:29:42;;;;;;;32.47;10.50;;;6.00;99.90;;;;;;5081767;28;20223;-83
2021/12/17 08:32:10;;;;;;;32.47;11.13;;;6.00;99.90;;;;;;5075705;28;20192;-78
2021/12/17 08:34:38;;;;;;;38.70;12.00;;;6.00;99.90;;;;;;5082081;28;20199;-78
2021/12/17 08:37:12;;;;;;;33.60;11.70;;;6.10;99.90;;;;;;5093218;28;20184;-77
2021/12/17 08:39:41;;;;;;;27.40;9.57;;;6.10;99.90;;;;;;5099423;28;20659;-77
2021/12/17 08:42:09;;;;;;;28.03;10.43;;;6.10;99.90;;;;;;5098014;28;20196;-78
2021/12/17 08:44:36;;;;;;;35.60;11.13;;;6.20;99.90;;;;;;5094077;28;20200;-79
2021/12/17 08:47:05;;;;;;;31.07;9.17;;;6.20;99.90;;;;;;5095437;28;20234;-78
2021/12/17 08:49:32;;;;;;;25.13;8.20;;;6.20;99.90;;;;;;5093749;28;20202;-80
2021/12/17 08:52:03;;;;;;;18.10;6.83;;;6.20;99.90;;;;;;5096964;28;20203;-78
2021/12/17 08:54:30;;;;;;;20.83;7.60;;;6.30;99.90;;;;;;5095426;28;20211;-79
2021/12/17 08:56:58;;;;;;;23.63;6.97;;;6.30;99.90;;;;;;5095493;28;20200;-77
2021/12/17 08:59:27;;;;;;;23.00;7.00;;;6.30;99.90;;;;;;5094463;28;20269;-79
2021/12/17 09:01:54;;;;;;;22.90;8.00;;;6.40;99.90;;;;;;5098213;28;20554;-79
2021/12/17 09:04:21;;;;;;;24.13;8.10;;;6.40;99.90;;;;;;5092935;28;20184;-78
2021/12/17 09:06:48;;;;;;;30.73;8.40;;;6.40;99.90;;;;;;5097018;28;20242;-78
2021/12/17 09:09:19;;;;;;;22.53;8.40;;;6.40;99.90;;;;;;5093737;28;20259;-79
2021/12/17 09:11:47;;;;;;;27.23;8.40;;;6.50;99.90;;;;;;5092512;28;20264;-77
2021/12/17 09:14:19;;;;;;;28.53;9.17;;;6.50;99.90;;;;;;5095713;28;20180;-79
2021/12/17 09:16:47;;;;;;;26.70;9.43;;;6.50;99.90;;;;;;5093367;28;20282;-80
2021/12/17 09:19:14;;;;;;;25.50;8.57;;;6.50;99.90;;;;;;5093569;28;20220;-81
2021/12/17 09:21:41;;;;;;;25.93;9.80;;;6.50;99.90;;;;;;5092808;28;20245;-79
2021/12/17 09:24:09;;;;;;;30.00;11.57;;;6.60;99.90;;;;;;5100529;28;20630;-82
2021/12/17 09:26:36;;;;;;;30.63;9.73;;;6.60;99.90;;;;;;5095418;28;20202;-82
2021/12/17 09:29:04;;;;;;;21.60;7.80;;;6.60;99.90;;;;;;5093185;28;20250;-81
2021/12/17 09:31:32;;;;;;;26.93;10.87;;;6.60;99.90;;;;;;5094295;28;20193;-80
2021/12/17 09:33:59;;;;;;;28.00;9.60;;;6.70;99.90;;;;;;5097116;28;20206;-81
2021/12/17 09:36:27;;;;;;;34.43;10.53;;;6.70;99.90;;;;;;5098908;28;20193;-81
2021/12/17 09:38:54;;;;;;;26.43;9.00;;;6.70;99.90;;;;;;5096462;28;20208;-79
2021/12/17 09:41:23;;;;;;;30.40;10.33;;;6.80;99.90;;;;;;5095539;28;20193;-81
2021/12/17 09:43:50;;;;;;;32.20;9.50;;;6.80;99.90;;;;;;5094545;28;20197;-80
2021/12/17 09:46:18;;;;;;;32.10;10.83;;;6.90;99.90;;;;;;5092754;28;20236;-80
2021/12/17 09:48:48;;;;;;;22.73;8.70;;;6.90;99.90;;;;;;5093267;28;20201;-81
2021/12/17 09:51:18;;;;;;;25.70;9.30;;;6.90;99.90;;;;;;5092391;28;20661;-80
2021/12/17 09:53:47;;;;;;;30.53;11.97;;;6.90;99.90;;;;;;5092555;28;20536;-80
2021/12/17 09:56:14;;;;;;;29.47;10.57;;;6.90;99.90;;;;;;5092355;28;20194;-81
2021/12/17 09:58:41;;;;;;;27.77;9.17;;;6.90;99.90;;;;;;5092330;28;20220;-82
2021/12/17 10:01:08;;;;;;;20.80;7.43;;;7.00;99.90;;;;;;5096417;28;20191;-80
2021/12/17 10:03:35;;;;;;;20.57;7.53;;;7.00;99.90;;;;;;5092530;28;20189;-80
2021/12/17 10:06:20;;;;;;;21.53;7.53;;;7.10;99.90;;;;;;5092627;28;20194;-79
2021/12/17 10:08:48;;;;;;;19.83;7.30;;;7.10;99.90;;;;;;5094549;28;20190;-82
2021/12/17 10:11:18;;;;;;;28.37;7.93;;;7.10;99.90;;;;;;5092574;28;20190;-78
2021/12/17 10:13:47;;;;;;;17.80;7.30;;;7.10;99.90;;;;;;5092504;28;20273;-79
2021/12/17 10:16:21;;;;;;;17.47;7.10;;;7.10;99.90;;;;;;5095979;28;20632;-80
2021/12/17 10:18:51;;;;;;;18.70;6.20;;;7.10;99.90;;;;;;5092300;28;20254;-81
2021/12/17 10:21:25;;;;;;;19.03;5.97;;;7.00;99.90;;;;;;5095657;28;20175;-81
2021/12/17 10:23:54;;;;;;;21.97;6.47;;;7.00;99.90;;;;;;5108584;28;20189;-83
2021/12/17 10:26:24;;;;;;;18.53;6.93;;;7.00;99.90;;;;;;5093410;28;20564;-81
2021/12/17 10:28:56;;;;;;;15.43;5.13;;;7.00;99.90;;;;;;5092443;28;20183;-82
2021/12/17 10:31:24;;;;;;;20.90;6.50;;;7.00;99.90;;;;;;5098766;28;20219;-82
2021/12/17 10:33:52;;;;;;;19.13;6.03;;;6.90;99.90;;;;;;5096572;28;20231;-79
2021/12/17 10:36:30;;;;;;;18.00;5.63;;;7.00;99.90;;;;;;5097316;28;20192;-80
2021/12/17 10:38:57;;;;;;;16.70;5.10;;;7.00;99.90;;;;;;5095120;28;20205;-79
2021/12/17 10:41:27;;;;;;;19.47;6.07;;;6.90;99.90;;;;;;5092252;28;20721;-79
2021/12/17 10:43:59;;;;;;;15.93;5.10;;;6.90;99.90;;;;;;5103835;28;20245;-82
2021/12/17 10:46:30;;;;;;;17.67;5.90;;;6.90;99.90;;;;;;5099668;28;20241;-81
2021/12/17 10:49:12;;;;;;;20.13;5.93;;;6.90;99.90;;;;;;5094134;28;20204;-79
2021/12/17 10:51:48;;;;;;;21.67;6.30;;;7.00;99.90;;;;;;5094868;28;20186;-80
2021/12/17 10:54:17;;;;;;;23.33;7.37;;;7.00;99.90;;;;;;5092040;28;20272;-80
2021/12/17 10:56:46;;;;;;;21.70;6.57;;;7.00;99.90;;;;;;5107488;28;20178;-81
2021/12/17 10:59:16;;;;;;;18.20;8.67;;;7.00;99.90;;;;;;5094295;28;20224;-78
2021/12/17 11:01:45;;;;;;;23.53;8.83;;;6.90;99.90;;;;;;5097808;28;20191;-80
2021/12/17 11:04:20;;;;;;;24.13;9.10;;;7.00;99.90;;;;;;5098788;28;20181;-80
2021/12/17 11:07:02;;;;;;;21.83;8.43;;;6.90;99.90;;;;;;5094985;28;20181;-80
2021/12/17 11:09:44;;;;;;;28.90;9.37;;;6.90;99.90;;;;;;5093986;28;20232;-82
2021/12/17 11:12:30;;;;;;;24.57;9.60;;;6.80;99.90;;;;;;5097192;28;20543;-80
2021/12/17 11:15:10;;;;;;;34.17;12.27;;;6.80;99.90;;;;;;5099988;28;20234;-80
2021/12/17 11:17:38;;;;;;;27.37;11.40;;;6.70;99.90;;;;;;5093552;28;20214;-81
2021/12/17 11:20:09;;;;;;;29.07;10.57;;;6.70;99.90;;;;;;5095620;28;20275;-79
2021/12/17 11:22:39;;;;;;;28.33;10.60;;;6.80;99.90;;;;;;5097755;28;20254;-83
2021/12/17 11:25:07;;;;;;;32.67;12.43;;;6.70;99.90;;;;;;5096203;28;20192;-81
2021/12/17 11:27:34;;;;;;;31.93;12.33;;;6.80;99.90;;;;;;5098413;28;20200;-80
2021/12/17 11:30:02;;;;;;;30.73;12.60;;;6.80;99.90;;;;;;5107328;28;20225;-82
2021/12/17 11:32:30;;;;;;;24.97;11.33;;;6.80;99.90;;;;;;5104374;28;20197;-78
2021/12/17 11:34:58;;;;;;;33.60;13.13;;;6.80;99.90;;;;;;5093682;28;20185;-78
2021/12/17 11:37:26;;;;;;;21.53;10.23;;;6.80;99.90;;;;;;5106838;28;20295;-79
2021/12/17 11:40:00;;;;;;;27.13;10.77;;;6.70;99.90;;;;;;5095470;28;20221;-80
2021/12/17 11:42:54;;;;;;;30.93;10.80;;;6.80;99.90;;;;;;5095206;28;20191;-80
2021/12/17 11:45:27;;;;;;;27.23;11.57;;;6.80;99.90;;;;;;5095245;28;20191;-81
2021/12/17 11:47:57;;;;;;;25.80;9.20;;;6.80;99.90;;;;;;5100414;28;20188;-80
2021/12/17 11:50:24;;;;;;;25.07;10.07;;;6.80;99.90;;;;;;5094977;28;20654;-80
2021/12/17 11:52:52;;;;;;;31.37;12.57;;;6.80;99.90;;;;;;5098327;28;20281;-79
2021/12/17 11:55:39;;;;;;;32.80;12.90;;;6.80;99.90;;;;;;5101527;28;20195;-80
2021/12/17 11:58:13;;;;;;;64.23;19.60;;;6.80;99.90;;;;;;5095553;28;20702;-80
2021/12/17 12:00:53;;;;;;;42.80;12.17;;;6.80;99.90;;;;;;5102954;28;20200;-82
2021/12/17 12:03:21;;;;;;;32.17;12.30;;;6.80;99.90;;;;;;5112634;28;20196;-81
2021/12/17 12:05:50;;;;;;;32.90;8.87;;;6.80;99.90;;;;;;5094810;28;20258;-79
2021/12/17 12:08:44;;;;;;;39.60;12.40;;;6.80;99.90;;;;;;5097124;28;20238;-83
2021/12/17 12:11:15;;;;;;;38.40;12.93;;;6.80;99.90;;;;;;5107424;28;20224;-80
2021/12/17 12:13:44;;;;;;;90.23;31.57;;;6.80;99.90;;;;;;5099296;28;20206;-79
2021/12/17 12:16:16;;;;;;;32.40;11.80;;;6.90;99.90;;;;;;5103764;28;20204;-79
2021/12/17 12:18:46;;;;;;;30.07;12.57;;;6.90;99.90;;;;;;5102044;28;20682;-79
2021/12/17 12:21:18;;;;;;;26.60;8.90;;;6.90;99.90;;;;;;5096248;28;20185;-79
2021/12/17 12:23:58;;;;;;;33.23;12.63;;;6.80;99.90;;;;;;5095064;28;20203;-80
2021/12/17 12:26:45;;;;;;;34.77;13.27;;;6.70;99.90;;;;;;5096847;28;20225;-78
2021/12/17 12:29:15;;;;;;;35.50;14.53;;;6.70;99.90;;;;;;5093979;28;20596;-79
2021/12/17 12:32:11;;;;;;;39.53;13.47;;;6.70;99.90;;;;;;5093940;28;20184;-78
2021/12/17 12:34:41;;;;;;;35.27;13.80;;;6.70;99.90;;;;;;5098503;28;20267;-79
2021/12/17 12:37:25;;;;;;;28.90;12.57;;;6.70;99.90;;;;;;5093901;28;20192;-79
2021/12/17 12:40:15;;;;;;;28.63;11.30;;;6.70;99.90;;;;;;5093864;28;20208;-80
2021/12/17 12:42:52;;;;;;;34.27;14.67;;;6.70;99.90;;;;;;5098313;28;20185;-78
2021/12/17 12:45:20;;;;;;;27.43;9.97;;;6.70;99.90;;;;;;5097545;28;20191;-80
2021/12/17 12:47:58;;;;;;;28.67;10.27;;;6.60;99.90;;;;;;5095641;28;20244;-78
2021/12/17 12:50:31;;;;;;;28.37;8.73;;;6.60;99.90;;;;;;5093447;28;20194;-78
2021/12/17 12:53:02;;;;;;;25.47;8.80;;;6.60;99.90;;;;;;5093782;28;20566;-78
2021/12/17 12:55:31;;;;;;;28.40;10.00;;;6.60;99.90;;;;;;5096531;28;20185;-79
2021/12/17 12:58:07;;;;;;;20.67;8.07;;;6.60;99.90;;;;;;5093060;28;20198;-79
2021/12/17 13:00:39;;;;;;;21.97;8.47;;;6.60;99.90;;;;;;5093347;28;20248;-79
2021/12/17 13:03:08;;;;;;;24.03;9.10;;;6.60;99.90;;;;;;5093907;28;20638;-78
2021/12/17 13:05:36;;;;;;;23.47;8.40;;;6.50;99.90;;;;;;5093086;28;20188;-78
2021/12/17 13:08:11;;;;;;;26.77;9.93;;;6.50;99.90;;;;;;5093861;28;20185;-78
2021/12/17 13:10:41;;;;;;;31.77;10.23;;;6.50;99.90;;;;;;5092107;28;20627;-79
2021/12/17 13:13:17;;;;;;;27.23;9.97;;;6.50;99.90;;;;;;5093682;28;20188;-79
2021/12/17 13:16:07;;;;;;;28.80;11.00;;;6.40;99.90;;;;;;5102076;28;20182;-79
2021/12/17 13:24:10;;;;;;;25.57;10.87;;;6.40;99.90;;;;;;5071933;28;20195;-80
2021/12/17 13:26:40;;;;;;;29.63;11.23;;;6.40;99.90;;;;;;5084229;28;20188;-80
2021/12/17 13:29:12;;;;;;;22.80;9.43;;;6.40;99.90;;;;;;5083205;28;20681;-79
2021/12/17 13:32:05;;;;;;;29.27;10.40;;;6.30;99.90;;;;;;5075258;28;20180;-80
2021/12/17 13:34:36;;;;;;;33.47;11.43;;;6.30;99.90;;;;;;5074563;28;20245;-85
2021/12/17 13:37:07;;;;;;;35.87;11.70;;;6.30;99.90;;;;;;5076704;28;20276;-79
2021/12/17 13:39:37;;;;;;;41.87;10.37;;;6.30;99.90;;;;;;5070877;28;20200;-79
2021/12/17 13:42:06;;;;;;;32.17;10.20;;;6.30;99.90;;;;;;5073536;28;20196;-79
2021/12/17 13:44:41;;;;;;;28.27;10.13;;;6.30;99.90;;;;;;5085668;28;20200;-80
2021/12/17 13:47:20;;;;;;;39.20;11.87;;;6.30;99.90;;;;;;5092404;28;20282;-79
2021/12/17 13:49:49;;;;;;;28.07;11.67;;;6.30;99.90;;;;;;5090626;28;20227;-78
2021/12/17 13:52:16;;;;;;;44.83;15.30;;;6.30;99.90;;;;;;5092346;28;20649;-80
2021/12/17 13:54:47;;;;;;;34.80;13.57;;;6.30;99.90;;;;;;5077151;28;20192;-79
2021/12/17 13:57:17;;;;;;;38.07;11.17;;;6.20;99.90;;;;;;5087439;28;20187;-79
2021/12/17 13:59:52;;;;;;;25.47;9.83;;;6.20;99.90;;;;;;5093779;28;20203;-79
2021/12/17 14:02:22;;;;;;;29.33;9.83;;;6.10;99.90;;;;;;5093264;28;20274;-78
2021/12/17 14:05:01;;;;;;;37.03;12.40;;;6.10;99.90;;;;;;5091884;28;20249;-80
2021/12/17 14:07:30;;;;;;;34.00;10.57;;;6.10;99.90;;;;;;5091354;28;20190;-80
2021/12/17 14:09:59;;;;;;;36.87;13.93;;;6.00;99.90;;;;;;5093409;28;20917;-80
2021/12/17 14:12:30;;;;;;;33.53;13.37;;;6.00;99.90;;;;;;5095197;28;20279;-79
2021/12/17 14:15:01;;;;;;;29.53;11.03;;;6.00;99.90;;;;;;5095233;28;20196;-79
2021/12/17 14:17:34;;;;;;;27.07;10.83;;;6.00;99.90;;;;;;5071872;28;20188;-78
2021/12/17 14:20:12;;;;;;;25.70;8.97;;;6.00;99.90;;;;;;5071469;28;20254;-78
2021/12/17 14:22:43;;;;;;;29.70;9.23;;;5.90;99.90;;;;;;5081999;28;20183;-83
2021/12/17 14:25:35;;;;;;;35.63;10.00;;;5.90;99.90;;;;;;5076462;28;20249;-79
2021/12/17 14:28:13;;;;;;;25.27;8.70;;;5.90;99.90;;;;;;5081181;28;20191;-78
2021/12/17 14:30:48;;;;;;;29.57;8.90;;;5.80;99.90;;;;;;5072679;28;20196;-80
2021/12/17 14:33:17;;;;;;;27.47;9.27;;;5.80;99.90;;;;;;5084674;28;20186;-77
2021/12/17 14:35:56;;;;;;;25.97;8.67;;;5.80;99.90;;;;;;5095946;28;20272;-78
2021/12/17 14:38:36;;;;;;;24.97;7.97;;;5.80;99.90;;;;;;5091623;28;20183;-77
2021/12/17 14:41:04;;;;;;;24.93;8.67;;;5.80;99.90;;;;;;5090998;28;20206;-78
2021/12/17 14:43:39;;;;;;;23.93;8.30;;;5.70;99.90;;;;;;5091815;28;20213;-78
2021/12/17 14:46:16;;;;;;;22.20;7.70;;;5.70;99.90;;;;;;5091597;28;20240;-78
2021/12/17 14:48:56;;;;;;;22.67;7.87;;;5.70;99.90;;;;;;5084754;28;20198;-78
2021/12/17 15:05:16;;;;;;;33.07;11.20;;;5.60;99.90;;;;;;5071301;28;20273;-79
2021/12/17 15:07:44;;;;;;;24.27;8.93;;;5.60;99.90;;;;;;5072039;28;20205;-79
2021/12/17 15:10:12;;;;;;;25.57;8.87;;;5.60;99.90;;;;;;5084740;28;20230;-78
2021/12/17 15:12:40;;;;;;;28.33;9.70;;;5.60;99.90;;;;;;5096123;28;20196;-78
2021/12/17 15:15:10;;;;;;;28.93;10.40;;;5.60;99.90;;;;;;5084852;28;20195;-78
2021/12/17 15:17:39;;;;;;;31.17;11.53;;;5.60;99.90;;;;;;5096551;28;20183;-79
2021/12/17 15:20:09;;;;;;;29.03;9.90;;;5.60;99.90;;;;;;5096381;28;20310;-78
2021/12/17 15:22:36;;;;;;;26.77;9.70;;;5.60;99.90;;;;;;5096367;28;20203;-78
2021/12/17 15:25:05;;;;;;;44.70;11.10;;;5.60;99.90;;;;;;5095605;28;20192;-79
2021/12/17 15:27:33;;;;;;;20.60;7.90;;;5.60;99.90;;;;;;5095089;28;20192;-78